sensor_id;sensor_type;location;lat;lon;timestamp;pressure;altitude;pressure_sealevel;temperature;humidity
73817;BME280;62146;53.232;-1.304;2023-03-14T00:01:26;97627.88;;;7.51;100.00
73817;BME280;62146;53.232;-1.304;2023-03-14T00:03:53;97631.38;;;7.47;100.00
73817;BME280;62146;53.232;-1.304;2023-03-14T00:06:19;97641.72;;;7.44;100.00
73817;BME280;62146;53.232;-1.304;2023-03-14T00:08:46;97647.75;;;7.44;100.00
73817;BME280;62146;53.232;-1.304;2023-03-14T00:11:15;97650.47;;;7.39;100.00
73817;BME280;62146;53.232;-1.304;2023-03-14T00:13:42;97654.97;;;7.39;100.00
73817;BME280;62146;53.232;-1.304;2023-03-14T00:16:11;97662.38;;;7.37;100.00
73817;BME280;62146;53.232;-1.304;2023-03-14T00:18:39;97667.72;;;7.32;100.00
73817;BME280;62146;53.232;-1.304;2023-03-14T00:21:07;97671.41;;;7.31;100.00
73817;BME280;62146;53.232;-1.304;2023-03-14T00:23:36;97673.56;;;7.29;100.00
73817;BME280;62146;53.232;-1.304;2023-03-14T00:26:07;97687.28;;;7.26;100.00
73817;BME280;62146;53.232;-1.304;2023-03-14T00:28:34;97675.97;;;7.25;100.00
73817;BME280;62146;53.232;-1.304;2023-03-14T00:31:06;97688.38;;;7.25;100.00
73817;BME280;62146;53.232;-1.304;2023-03-14T00:33:33;97693.13;;;7.23;100.00
73817;BME280;62146;53.232;-1.304;2023-03-14T00:36:04;97699.47;;;7.22;100.00
73817;BME280;62146;53.232;-1.304;2023-03-14T00:38:32;97697.41;;;7.19;100.00
73817;BME280;62146;53.232;-1.304;2023-03-14T00:40:59;97699.81;;;7.16;100.00
73817;BME280;62146;53.232;-1.304;2023-03-14T00:43:29;97711.41;;;7.15;100.00
73817;BME280;62146;53.232;-1.304;2023-03-14T00:45:55;97721.75;;;7.11;100.00
73817;BME280;62146;53.232;-1.304;2023-03-14T00:48:23;97729.38;;;7.13;100.00
73817;BME280;62146;53.232;-1.304;2023-03-14T00:50:49;97738.06;;;7.13;100.00
73817;BME280;62146;53.232;-1.304;2023-03-14T00:53:16;97737.53;;;7.11;100.00
73817;BME280;62146;53.232;-1.304;2023-03-14T00:55:44;97748.09;;;7.11;100.00
73817;BME280;62146;53.232;-1.304;2023-03-14T00:58:12;97753.66;;;7.10;100.00
73817;BME280;62146;53.232;-1.304;2023-03-14T01:00:39;97753.72;;;7.05;100.00
73817;BME280;62146;53.232;-1.304;2023-03-14T01:03:06;97764.81;;;7.02;100.00
73817;BME280;62146;53.232;-1.304;2023-03-14T01:05:34;97761.09;;;7.03;100.00
73817;BME280;62146;53.232;-1.304;2023-03-14T01:08:02;97774.56;;;7.01;100.00
73817;BME280;62146;53.232;-1.304;2023-03-14T01:10:29;97774.34;;;6.98;100.00
73817;BME280;62146;53.232;-1.304;2023-03-14T01:12:55;97792.78;;;6.98;100.00
73817;BME280;62146;53.232;-1.304;2023-03-14T01:15:22;97797.75;;;6.99;100.00
73817;BME280;62146;53.232;-1.304;2023-03-14T01:17:49;97805.72;;;6.94;100.00
73817;BME280;62146;53.232;-1.304;2023-03-14T01:20:16;97803.38;;;6.93;100.00
73817;BME280;62146;53.232;-1.304;2023-03-14T01:22:44;97810.47;;;6.93;100.00
73817;BME280;62146;53.232;-1.304;2023-03-14T01:25:14;97820.50;;;6.91;100.00
73817;BME280;62146;53.232;-1.304;2023-03-14T01:27:40;97813.69;;;6.90;100.00
73817;BME280;62146;53.232;-1.304;2023-03-14T01:30:29;97818.72;;;6.86;100.00
73817;BME280;62146;53.232;-1.304;2023-03-14T01:32:55;97830.03;;;6.87;100.00
73817;BME280;62146;53.232;-1.304;2023-03-14T01:35:22;97830.59;;;6.84;100.00
73817;BME280;62146;53.232;-1.304;2023-03-14T01:37:48;97838.00;;;6.82;100.00
73817;BME280;62146;53.232;-1.304;2023-03-14T01:40:15;97849.63;;;6.76;100.00
73817;BME280;62146;53.232;-1.304;2023-03-14T01:42:54;97854.88;;;6.76;100.00
73817;BME280;62146;53.232;-1.304;2023-03-14T01:48:28;97859.44;;;6.66;100.00
73817;BME280;62146;53.232;-1.304;2023-03-14T01:50:59;97864.47;;;6.62;100.00
73817;BME280;62146;53.232;-1.304;2023-03-14T01:53:27;97882.41;;;6.60;100.00
73817;BME280;62146;53.232;-1.304;2023-03-14T01:55:55;97879.78;;;6.60;100.00
73817;BME280;62146;53.232;-1.304;2023-03-14T01:58:25;97888.75;;;6.54;100.00
73817;BME280;62146;53.232;-1.304;2023-03-14T02:00:55;97896.16;;;6.52;100.00
73817;BME280;62146;53.232;-1.304;2023-03-14T02:03:24;97906.50;;;6.44;100.00
73817;BME280;62146;53.232;-1.304;2023-03-14T02:05:53;97912.78;;;6.43;100.00
73817;BME280;62146;53.232;-1.304;2023-03-14T02:08:24;97912.06;;;6.38;100.00
73817;BME280;62146;53.232;-1.304;2023-03-14T02:10:51;97920.72;;;6.38;100.00
73817;BME280;62146;53.232;-1.304;2023-03-14T02:13:18;97926.00;;;6.38;100.00
73817;BME280;62146;53.232;-1.304;2023-03-14T02:15:47;97936.28;;;6.35;100.00
73817;BME280;62146;53.232;-1.304;2023-03-14T02:18:14;97945.00;;;6.30;100.00
73817;BME280;62146;53.232;-1.304;2023-03-14T02:24:03;97951.56;;;6.28;100.00
73817;BME280;62146;53.232;-1.304;2023-03-14T02:29:30;97964.53;;;6.19;100.00
73817;BME280;62146;53.232;-1.304;2023-03-14T02:31:58;97973.19;;;6.20;100.00
73817;BME280;62146;53.232;-1.304;2023-03-14T02:34:25;97969.53;;;6.16;100.00
73817;BME280;62146;53.232;-1.304;2023-03-14T02:36:52;97975.34;;;6.13;100.00
73817;BME280;62146;53.232;-1.304;2023-03-14T02:39:36;97979.31;;;6.11;100.00
73817;BME280;62146;53.232;-1.304;2023-03-14T02:42:03;97994.84;;;6.07;100.00
73817;BME280;62146;53.232;-1.304;2023-03-14T02:44:30;97989.03;;;6.05;100.00
73817;BME280;62146;53.232;-1.304;2023-03-14T02:46:57;97996.72;;;6.02;100.00
73817;BME280;62146;53.232;-1.304;2023-03-14T02:49:25;98012.25;;;5.98;100.00
73817;BME280;62146;53.232;-1.304;2023-03-14T02:51:53;98021.44;;;5.96;100.00
73817;BME280;62146;53.232;-1.304;2023-03-14T02:54:20;98030.91;;;5.92;100.00
73817;BME280;62146;53.232;-1.304;2023-03-14T02:56:47;98049.59;;;5.90;100.00
73817;BME280;62146;53.232;-1.304;2023-03-14T02:59:13;98053.81;;;5.91;100.00
73817;BME280;62146;53.232;-1.304;2023-03-14T03:01:40;98071.94;;;5.93;100.00
73817;BME280;62146;53.232;-1.304;2023-03-14T03:04:06;98080.34;;;5.90;100.00
73817;BME280;62146;53.232;-1.304;2023-03-14T03:06:33;98079.31;;;5.86;100.00
73817;BME280;62146;53.232;-1.304;2023-03-14T03:08:59;98093.53;;;5.80;100.00
73817;BME280;62146;53.232;-1.304;2023-03-14T03:11:26;98106.94;;;5.84;100.00
73817;BME280;62146;53.232;-1.304;2023-03-14T03:13:53;98112.44;;;5.82;100.00
73817;BME280;62146;53.232;-1.304;2023-03-14T03:16:19;98117.72;;;5.77;100.00
73817;BME280;62146;53.232;-1.304;2023-03-14T03:18:46;98131.94;;;5.76;100.00
73817;BME280;62146;53.232;-1.304;2023-03-14T03:21:13;98131.66;;;5.78;100.00
73817;BME280;62146;53.232;-1.304;2023-03-14T03:23:39;98139.81;;;5.76;100.00
73817;BME280;62146;53.232;-1.304;2023-03-14T03:26:06;98142.97;;;5.73;100.00
73817;BME280;62146;53.232;-1.304;2023-03-14T03:28:32;98144.25;;;5.66;100.00
73817;BME280;62146;53.232;-1.304;2023-03-14T03:31:06;98156.09;;;5.68;100.00
73817;BME280;62146;53.232;-1.304;2023-03-14T03:33:33;98160.28;;;5.64;100.00
73817;BME280;62146;53.232;-1.304;2023-03-14T03:36:00;98165.56;;;5.64;100.00
73817;BME280;62146;53.232;-1.304;2023-03-14T03:38:26;98180.28;;;5.60;100.00
73817;BME280;62146;53.232;-1.304;2023-03-14T03:40:53;98183.69;;;5.61;100.00
73817;BME280;62146;53.232;-1.304;2023-03-14T03:43:19;98187.88;;;5.62;100.00
73817;BME280;62146;53.232;-1.304;2023-03-14T03:45:46;98194.72;;;5.58;100.00
73817;BME280;62146;53.232;-1.304;2023-03-14T03:48:12;98195.22;;;5.55;100.00
73817;BME280;62146;53.232;-1.304;2023-03-14T03:50:44;98200.47;;;5.55;100.00
73817;BME280;62146;53.232;-1.304;2023-03-14T03:53:11;98212.31;;;5.53;100.00
73817;BME280;62146;53.232;-1.304;2023-03-14T03:55:41;98222.56;;;5.54;100.00
73817;BME280;62146;53.232;-1.304;2023-03-14T03:58:08;98230.44;;;5.49;100.00
73817;BME280;62146;53.232;-1.304;2023-03-14T04:00:35;98239.13;;;5.45;100.00
73817;BME280;62146;53.232;-1.304;2023-03-14T04:03:01;98241.97;;;5.43;100.00
73817;BME280;62146;53.232;-1.304;2023-03-14T04:05:28;98249.09;;;5.43;100.00
73817;BME280;62146;53.232;-1.304;2023-03-14T04:07:55;98253.81;;;5.41;100.00
73817;BME280;62146;53.232;-1.304;2023-03-14T04:10:21;98267.47;;;5.43;100.00
73817;BME280;62146;53.232;-1.304;2023-03-14T04:12:48;98281.13;;;5.40;100.00
73817;BME280;62146;53.232;-1.304;2023-03-14T04:15:14;98282.97;;;5.39;100.00
73817;BME280;62146;53.232;-1.304;2023-03-14T04:17:41;98306.34;;;5.36;100.00
73817;BME280;62146;53.232;-1.304;2023-03-14T04:20:08;98307.66;;;5.33;100.00
73817;BME280;62146;53.232;-1.304;2023-03-14T04:22:37;98312.66;;;5.35;100.00
73817;BME280;62146;53.232;-1.304;2023-03-14T04:25:10;98327.63;;;5.34;100.00
73817;BME280;62146;53.232;-1.304;2023-03-14T04:27:37;98338.13;;;5.30;100.00
73817;BME280;62146;53.232;-1.304;2023-03-14T04:30:04;98348.38;;;5.31;100.00
73817;BME280;62146;53.232;-1.304;2023-03-14T04:32:30;98357.03;;;5.27;100.00
73817;BME280;62146;53.232;-1.304;2023-03-14T04:34:57;98362.78;;;5.24;100.00
73817;BME280;62146;53.232;-1.304;2023-03-14T04:37:24;98377.19;;;5.21;100.00
73817;BME280;62146;53.232;-1.304;2023-03-14T04:39:50;98391.38;;;5.20;100.00
73817;BME280;62146;53.232;-1.304;2023-03-14T04:42:17;98395.31;;;5.18;100.00
73817;BME280;62146;53.232;-1.304;2023-03-14T04:44:44;98402.41;;;5.17;100.00
73817;BME280;62146;53.232;-1.304;2023-03-14T04:47:10;98414.25;;;5.20;100.00
73817;BME280;62146;53.232;-1.304;2023-03-14T04:49:37;98417.38;;;5.17;100.00
73817;BME280;62146;53.232;-1.304;2023-03-14T04:52:04;98427.34;;;5.15;100.00
73817;BME280;62146;53.232;-1.304;2023-03-14T04:54:30;98434.69;;;5.13;100.00
73817;BME280;62146;53.232;-1.304;2023-03-14T04:56:57;98446.75;;;5.09;100.00
73817;BME280;62146;53.232;-1.304;2023-03-14T04:59:23;98450.91;;;5.05;100.00
73817;BME280;62146;53.232;-1.304;2023-03-14T05:01:50;98455.94;;;5.07;100.00
73817;BME280;62146;53.232;-1.304;2023-03-14T05:04:17;98466.16;;;5.03;100.00
73817;BME280;62146;53.232;-1.304;2023-03-14T05:06:45;98475.56;;;4.99;100.00
73817;BME280;62146;53.232;-1.304;2023-03-14T05:09:12;98472.38;;;4.97;100.00
73817;BME280;62146;53.232;-1.304;2023-03-14T05:11:38;98485.25;;;4.99;100.00
73817;BME280;62146;53.232;-1.304;2023-03-14T05:14:05;98494.44;;;4.96;100.00
73817;BME280;62146;53.232;-1.304;2023-03-14T05:16:32;98494.69;;;4.95;100.00
73817;BME280;62146;53.232;-1.304;2023-03-14T05:18:58;98501.25;;;4.92;100.00
73817;BME280;62146;53.232;-1.304;2023-03-14T05:21:25;98506.72;;;4.91;100.00
73817;BME280;62146;53.232;-1.304;2023-03-14T05:23:52;98512.22;;;4.89;100.00
73817;BME280;62146;53.232;-1.304;2023-03-14T05:26:18;98520.66;;;4.91;100.00
73817;BME280;62146;53.232;-1.304;2023-03-14T05:28:45;98530.88;;;4.88;100.00
73817;BME280;62146;53.232;-1.304;2023-03-14T05:31:12;98532.94;;;4.86;100.00
73817;BME280;62146;53.232;-1.304;2023-03-14T05:33:39;98545.78;;;4.82;100.00
73817;BME280;62146;53.232;-1.304;2023-03-14T05:36:06;98549.94;;;4.79;100.00
73817;BME280;62146;53.232;-1.304;2023-03-14T05:38:33;98562.81;;;4.80;100.00
73817;BME280;62146;53.232;-1.304;2023-03-14T05:40:59;98580.16;;;4.81;100.00
73817;BME280;62146;53.232;-1.304;2023-03-14T05:43:26;98588.25;;;4.79;100.00
73817;BME280;62146;53.232;-1.304;2023-03-14T05:45:53;98589.78;;;4.76;100.00
73817;BME280;62146;53.232;-1.304;2023-03-14T05:48:19;98601.91;;;4.77;100.00
73817;BME280;62146;53.232;-1.304;2023-03-14T05:50:48;98604.75;;;4.75;100.00
73817;BME280;62146;53.232;-1.304;2023-03-14T05:53:14;98612.41;;;4.77;100.00
73817;BME280;62146;53.232;-1.304;2023-03-14T05:55:41;98618.13;;;4.74;100.00
73817;BME280;62146;53.232;-1.304;2023-03-14T05:58:07;98632.53;;;4.71;100.00
73817;BME280;62146;53.232;-1.304;2023-03-14T06:00:34;98639.88;;;4.69;100.00
73817;BME280;62146;53.232;-1.304;2023-03-14T06:03:00;98646.97;;;4.69;100.00
73817;BME280;62146;53.232;-1.304;2023-03-14T06:05:27;98656.91;;;4.67;100.00
73817;BME280;62146;53.232;-1.304;2023-03-14T06:07:54;98664.53;;;4.68;100.00
73817;BME280;62146;53.232;-1.304;2023-03-14T06:10:20;98668.97;;;4.68;100.00
73817;BME280;62146;53.232;-1.304;2023-03-14T06:12:47;98678.94;;;4.66;100.00
73817;BME280;62146;53.232;-1.304;2023-03-14T06:15:13;98690.72;;;4.63;100.00
73817;BME280;62146;53.232;-1.304;2023-03-14T06:17:40;98692.06;;;4.66;100.00
73817;BME280;62146;53.232;-1.304;2023-03-14T06:20:07;98701.47;;;4.62;100.00
73817;BME280;62146;53.232;-1.304;2023-03-14T06:22:34;98706.16;;;4.60;100.00
73817;BME280;62146;53.232;-1.304;2023-03-14T06:25:01;98708.72;;;4.55;100.00
73817;BME280;62146;53.232;-1.304;2023-03-14T06:27:27;98723.66;;;4.54;100.00
73817;BME280;62146;53.232;-1.304;2023-03-14T06:29:54;98724.94;;;4.52;100.00
73817;BME280;62146;53.232;-1.304;2023-03-14T06:32:23;98728.84;;;4.50;100.00
73817;BME280;62146;53.232;-1.304;2023-03-14T06:34:50;98723.03;;;4.48;100.00
73817;BME280;62146;53.232;-1.304;2023-03-14T06:37:17;98726.22;;;4.50;100.00
73817;BME280;62146;53.232;-1.304;2023-03-14T06:39:46;98733.53;;;4.48;100.00
73817;BME280;62146;53.232;-1.304;2023-03-14T06:42:13;98741.66;;;4.46;100.00
73817;BME280;62146;53.232;-1.304;2023-03-14T06:44:39;98761.03;;;4.45;100.00
73817;BME280;62146;53.232;-1.304;2023-03-14T06:47:06;98775.47;;;4.43;100.00
73817;BME280;62146;53.232;-1.304;2023-03-14T06:49:32;98778.56;;;4.40;100.00
73817;BME280;62146;53.232;-1.304;2023-03-14T06:51:59;98786.09;;;4.36;100.00
73817;BME280;62146;53.232;-1.304;2023-03-14T06:54:26;98796.28;;;4.33;100.00
73817;BME280;62146;53.232;-1.304;2023-03-14T06:56:53;98813.84;;;4.32;100.00
73817;BME280;62146;53.232;-1.304;2023-03-14T06:59:19;98821.41;;;4.29;100.00
73817;BME280;62146;53.232;-1.304;2023-03-14T07:01:46;98825.31;;;4.27;100.00
73817;BME280;62146;53.232;-1.304;2023-03-14T07:04:14;98833.19;;;4.27;100.00
73817;BME280;62146;53.232;-1.304;2023-03-14T07:06:41;98843.81;;;4.20;100.00
73817;BME280;62146;53.232;-1.304;2023-03-14T07:09:11;98852.41;;;4.16;100.00
73817;BME280;62146;53.232;-1.304;2023-03-14T07:11:38;98867.25;;;4.10;100.00
73817;BME280;62146;53.232;-1.304;2023-03-14T07:14:05;98873.19;;;4.06;100.00
73817;BME280;62146;53.232;-1.304;2023-03-14T07:16:32;98894.63;;;4.03;100.00
73817;BME280;62146;53.232;-1.304;2023-03-14T07:19:00;98909.81;;;4.01;100.00
73817;BME280;62146;53.232;-1.304;2023-03-14T07:21:27;98911.66;;;4.00;100.00
73817;BME280;62146;53.232;-1.304;2023-03-14T07:23:54;98923.84;;;3.95;100.00
73817;BME280;62146;53.232;-1.304;2023-03-14T07:26:21;98923.84;;;3.95;100.00
73817;BME280;62146;53.232;-1.304;2023-03-14T07:28:47;98926.94;;;3.92;100.00
73817;BME280;62146;53.232;-1.304;2023-03-14T07:31:14;98931.72;;;3.95;100.00
73817;BME280;62146;53.232;-1.304;2023-03-14T07:33:40;98936.97;;;3.95;100.00
73817;BME280;62146;53.232;-1.304;2023-03-14T07:36:07;98948.72;;;3.93;100.00
73817;BME280;62146;53.232;-1.304;2023-03-14T07:38:34;98956.81;;;3.91;100.00
73817;BME280;62146;53.232;-1.304;2023-03-14T07:41:02;98961.00;;;3.92;100.00
73817;BME280;62146;53.232;-1.304;2023-03-14T07:43:29;98969.91;;;3.91;100.00
73817;BME280;62146;53.232;-1.304;2023-03-14T07:45:56;98970.72;;;3.92;100.00
73817;BME280;62146;53.232;-1.304;2023-03-14T07:48:25;98967.06;;;3.93;100.00
73817;BME280;62146;53.232;-1.304;2023-03-14T07:50:54;98962.84;;;3.92;100.00
73817;BME280;62146;53.232;-1.304;2023-03-14T07:53:21;98967.63;;;3.95;100.00
73817;BME280;62146;53.232;-1.304;2023-03-14T07:55:50;98975.75;;;3.93;100.00
73817;BME280;62146;53.232;-1.304;2023-03-14T07:58:18;98988.38;;;3.96;100.00
73817;BME280;62146;53.232;-1.304;2023-03-14T08:00:45;98996.25;;;3.96;100.00
73817;BME280;62146;53.232;-1.304;2023-03-14T08:03:11;98997.59;;;3.99;100.00
73817;BME280;62146;53.232;-1.304;2023-03-14T08:05:38;99010.59;;;4.05;100.00
73817;BME280;62146;53.232;-1.304;2023-03-14T08:08:06;99008.50;;;4.07;100.00
73817;BME280;62146;53.232;-1.304;2023-03-14T08:10:32;99012.84;;;4.13;100.00
73817;BME280;62146;53.232;-1.304;2023-03-14T08:13:00;99027.88;;;4.17;100.00
73817;BME280;62146;53.232;-1.304;2023-03-14T08:15:28;99037.66;;;4.22;100.00
73817;BME280;62146;53.232;-1.304;2023-03-14T08:17:55;99048.28;;;4.27;100.00
73817;BME280;62146;53.232;-1.304;2023-03-14T08:20:24;99048.38;;;4.31;100.00
73817;BME280;62146;53.232;-1.304;2023-03-14T08:22:52;99065.78;;;4.37;100.00
73817;BME280;62146;53.232;-1.304;2023-03-14T08:25:19;99065.44;;;4.45;100.00
73817;BME280;62146;53.232;-1.304;2023-03-14T08:27:45;99070.56;;;4.52;100.00
73817;BME280;62146;53.232;-1.304;2023-03-14T08:30:14;99076.47;;;4.58;100.00
73817;BME280;62146;53.232;-1.304;2023-03-14T08:32:41;99081.00;;;4.63;100.00
73817;BME280;62146;53.232;-1.304;2023-03-14T08:35:09;99098.47;;;4.69;100.00
73817;BME280;62146;53.232;-1.304;2023-03-14T08:37:36;99097.75;;;4.73;100.00
73817;BME280;62146;53.232;-1.304;2023-03-14T08:40:04;99103.09;;;4.78;100.00
73817;BME280;62146;53.232;-1.304;2023-03-14T08:42:36;99113.22;;;4.86;100.00
73817;BME280;62146;53.232;-1.304;2023-03-14T08:45:03;99123.03;;;4.90;100.00
73817;BME280;62146;53.232;-1.304;2023-03-14T08:47:30;99133.16;;;4.98;100.00
73817;BME280;62146;53.232;-1.304;2023-03-14T08:49:56;99151.16;;;5.06;100.00
73817;BME280;62146;53.232;-1.304;2023-03-14T08:52:23;99155.03;;;5.15;100.00
73817;BME280;62146;53.232;-1.304;2023-03-14T08:54:50;99155.19;;;5.25;100.00
73817;BME280;62146;53.232;-1.304;2023-03-14T08:57:16;99158.00;;;5.34;100.00
73817;BME280;62146;53.232;-1.304;2023-03-14T08:59:43;99163.19;;;5.46;100.00
73817;BME280;62146;53.232;-1.304;2023-03-14T09:02:12;99171.81;;;5.58;100.00
73817;BME280;62146;53.232;-1.304;2023-03-14T09:04:39;99184.69;;;5.70;100.00
73817;BME280;62146;53.232;-1.304;2023-03-14T09:07:06;99189.88;;;5.82;100.00
73817;BME280;62146;53.232;-1.304;2023-03-14T09:09:32;99193.22;;;5.93;100.00
73817;BME280;62146;53.232;-1.304;2023-03-14T09:11:59;99198.19;;;6.06;100.00
73817;BME280;62146;53.232;-1.304;2023-03-14T09:14:25;99198.31;;;6.16;100.00
73817;BME280;62146;53.232;-1.304;2023-03-14T09:16:52;99200.84;;;6.27;100.00
73817;BME280;62146;53.232;-1.304;2023-03-14T09:19:19;99218.16;;;6.40;100.00
73817;BME280;62146;53.232;-1.304;2023-03-14T09:21:45;99210.97;;;6.51;100.00
73817;BME280;62146;53.232;-1.304;2023-03-14T09:24:12;99207.97;;;6.64;100.00
73817;BME280;62146;53.232;-1.304;2023-03-14T09:26:38;99217.13;;;6.78;100.00
73817;BME280;62146;53.232;-1.304;2023-03-14T09:29:05;99210.22;;;6.93;100.00
73817;BME280;62146;53.232;-1.304;2023-03-14T09:31:32;99221.47;;;7.10;100.00
73817;BME280;62146;53.232;-1.304;2023-03-14T09:33:58;99227.72;;;7.25;100.00
73817;BME280;62146;53.232;-1.304;2023-03-14T09:36:25;99235.81;;;7.40;100.00
73817;BME280;62146;53.232;-1.304;2023-03-14T09:38:51;99238.34;;;7.56;100.00
73817;BME280;62146;53.232;-1.304;2023-03-14T09:41:24;99246.16;;;7.72;100.00
73817;BME280;62146;53.232;-1.304;2023-03-14T09:44:45;99245.78;;;7.85;100.00
73817;BME280;62146;53.232;-1.304;2023-03-14T09:46:50;99250.91;;;7.96;100.00
73817;BME280;62146;53.232;-1.304;2023-03-14T09:51:46;99267.94;;;8.10;100.00
73817;BME280;62146;53.232;-1.304;2023-03-14T09:57:02;99268.88;;;8.30;100.00
73817;BME280;62146;53.232;-1.304;2023-03-14T09:59:29;99276.91;;;8.40;100.00
73817;BME280;62146;53.232;-1.304;2023-03-14T10:02:00;99268.50;;;8.48;100.00
73817;BME280;62146;53.232;-1.304;2023-03-14T10:04:28;99282.84;;;8.56;100.00
73817;BME280;62146;53.232;-1.304;2023-03-14T10:06:56;99292.13;;;8.64;100.00
73817;BME280;62146;53.232;-1.304;2023-03-14T10:09:24;99303.56;;;8.69;100.00
73817;BME280;62146;53.232;-1.304;2023-03-14T10:11:56;99312.88;;;8.77;100.00
73817;BME280;62146;53.232;-1.304;2023-03-14T10:14:32;99312.13;;;8.86;100.00
73817;BME280;62146;53.232;-1.304;2023-03-14T10:17:08;99311.91;;;8.92;100.00
73817;BME280;62146;53.232;-1.304;2023-03-14T10:19:37;99318.56;;;9.00;100.00
73817;BME280;62146;53.232;-1.304;2023-03-14T10:22:04;99313.03;;;9.06;100.00
73817;BME280;62146;53.232;-1.304;2023-03-14T10:24:34;99317.03;;;9.13;100.00
73817;BME280;62146;53.232;-1.304;2023-03-14T10:27:04;99311.25;;;9.21;100.00
73817;BME280;62146;53.232;-1.304;2023-03-14T10:29:33;99303.38;;;9.31;100.00
73817;BME280;62146;53.232;-1.304;2023-03-14T10:32:05;99317.47;;;9.41;100.00
73817;BME280;62146;53.232;-1.304;2023-03-14T10:34:36;99323.56;;;9.52;100.00
73817;BME280;62146;53.232;-1.304;2023-03-14T10:37:16;99314.63;;;9.62;100.00
73817;BME280;62146;53.232;-1.304;2023-03-14T10:39:59;99314.41;;;9.74;100.00
73817;BME280;62146;53.232;-1.304;2023-03-14T10:42:33;99317.88;;;9.84;100.00
73817;BME280;62146;53.232;-1.304;2023-03-14T10:45:04;99321.91;;;9.96;100.00
73817;BME280;62146;53.232;-1.304;2023-03-14T10:47:32;99322.22;;;10.10;100.00
73817;BME280;62146;53.232;-1.304;2023-03-14T10:50:28;99328.84;;;10.22;100.00
73817;BME280;62146;53.232;-1.304;2023-03-14T10:52:57;99330.72;;;10.31;100.00
73817;BME280;62146;53.232;-1.304;2023-03-14T10:55:39;99336.03;;;10.41;100.00
73817;BME280;62146;53.232;-1.304;2023-03-14T10:58:28;99342.16;;;10.51;100.00
73817;BME280;62146;53.232;-1.304;2023-03-14T11:01:05;99338.19;;;10.59;100.00
73817;BME280;62146;53.232;-1.304;2023-03-14T11:03:36;99349.56;;;10.69;100.00
73817;BME280;62146;53.232;-1.304;2023-03-14T11:08:49;99357.25;;;10.95;100.00
73817;BME280;62146;53.232;-1.304;2023-03-14T11:11:22;99353.22;;;11.07;100.00
73817;BME280;62146;53.232;-1.304;2023-03-14T11:14:29;99370.75;;;11.13;100.00
73817;BME280;62146;53.232;-1.304;2023-03-14T11:17:15;99359.84;;;11.15;100.00
73817;BME280;62146;53.232;-1.304;2023-03-14T11:19:55;99360.91;;;11.19;100.00
73817;BME280;62146;53.232;-1.304;2023-03-14T11:22:37;99368.63;;;11.20;100.00
73817;BME280;62146;53.232;-1.304;2023-03-14T11:25:12;99382.41;;;11.22;100.00
73817;BME280;62146;53.232;-1.304;2023-03-14T11:27:59;99400.72;;;11.19;100.00
73817;BME280;62146;53.232;-1.304;2023-03-14T11:33:08;99416.66;;;11.04;100.00
73817;BME280;62146;53.232;-1.304;2023-03-14T11:35:53;99417.72;;;10.93;100.00
73817;BME280;62146;53.232;-1.304;2023-03-14T11:38:50;99422.22;;;10.83;100.00
73817;BME280;62146;53.232;-1.304;2023-03-14T11:41:22;99438.13;;;10.73;100.00
73817;BME280;62146;53.232;-1.304;2023-03-14T11:43:56;99450.59;;;10.63;100.00
73817;BME280;62146;53.232;-1.304;2023-03-14T11:51:52;99469.56;;;10.25;100.00
73817;BME280;62146;53.232;-1.304;2023-03-14T11:54:56;99481.69;;;10.12;100.00
73817;BME280;62146;53.232;-1.304;2023-03-14T11:57:17;99497.75;;;9.90;100.00
73817;BME280;62146;53.232;-1.304;2023-03-14T12:00:20;99498.09;;;9.68;100.00
73817;BME280;62146;53.232;-1.304;2023-03-14T12:02:53;99507.47;;;9.44;100.00
73817;BME280;62146;53.232;-1.304;2023-03-14T12:05:46;99515.00;;;9.26;100.00
73817;BME280;62146;53.232;-1.304;2023-03-14T12:08:29;99508.00;;;9.10;100.00
73817;BME280;62146;53.232;-1.304;2023-03-14T12:11:12;99503.59;;;8.95;100.00
73817;BME280;62146;53.232;-1.304;2023-03-14T12:13:41;99505.34;;;8.84;100.00
73817;BME280;62146;53.232;-1.304;2023-03-14T12:18:47;99501.47;;;8.66;100.00
73817;BME280;62146;53.232;-1.304;2023-03-14T12:21:14;99497.09;;;8.76;100.00
73817;BME280;62146;53.232;-1.304;2023-03-14T12:26:22;99511.16;;;9.12;100.00
73817;BME280;62146;53.232;-1.304;2023-03-14T12:28:52;99502.59;;;9.32;100.00
73817;BME280;62146;53.232;-1.304;2023-03-14T12:31:38;99499.06;;;9.52;100.00
73817;BME280;62146;53.232;-1.304;2023-03-14T12:47:54;99513.19;;;10.88;100.00
73817;BME280;62146;53.232;-1.304;2023-03-14T12:50:26;99516.16;;;11.11;100.00
73817;BME280;62146;53.232;-1.304;2023-03-14T12:58:38;99545.16;;;11.47;100.00
73817;BME280;62146;53.232;-1.304;2023-03-14T13:01:07;99556.28;;;11.44;100.00
73817;BME280;62146;53.232;-1.304;2023-03-14T13:06:13;99551.72;;;11.25;100.00
73817;BME280;62146;53.232;-1.304;2023-03-14T13:12:10;99560.69;;;10.99;100.00
73817;BME280;62146;53.232;-1.304;2023-03-14T13:14:41;99538.41;;;10.96;100.00
73817;BME280;62146;53.232;-1.304;2023-03-14T13:17:11;99527.00;;;11.00;100.00
73817;BME280;62146;53.232;-1.304;2023-03-14T13:20:02;99515.91;;;11.13;100.00
73817;BME280;62146;53.232;-1.304;2023-03-14T13:22:33;99516.44;;;11.29;100.00
73817;BME280;62146;53.232;-1.304;2023-03-14T13:25:05;99519.41;;;11.43;100.00
73817;BME280;62146;53.232;-1.304;2023-03-14T13:27:34;99530.25;;;11.46;100.00
73817;BME280;62146;53.232;-1.304;2023-03-14T13:32:51;99550.41;;;11.37;100.00
73817;BME280;62146;53.232;-1.304;2023-03-14T13:38:00;99548.25;;;11.15;100.00
73817;BME280;62146;53.232;-1.304;2023-03-14T13:40:44;99527.00;;;10.95;100.00
73817;BME280;62146;53.232;-1.304;2023-03-14T13:43:16;99506.03;;;10.84;100.00
73817;BME280;62146;53.232;-1.304;2023-03-14T13:45:55;99498.84;;;10.65;100.00
73817;BME280;62146;53.232;-1.304;2023-03-14T13:48:26;99506.78;;;10.55;100.00
73817;BME280;62146;53.232;-1.304;2023-03-14T13:51:00;99513.38;;;10.47;100.00
73817;BME280;62146;53.232;-1.304;2023-03-14T13:53:29;99525.06;;;10.51;100.00
73817;BME280;62146;53.232;-1.304;2023-03-14T13:55:56;99517.09;;;10.56;100.00
73817;BME280;62146;53.232;-1.304;2023-03-14T13:58:28;99526.66;;;10.62;100.00
73817;BME280;62146;53.232;-1.304;2023-03-14T14:01:05;99513.66;;;10.66;100.00